Terminal Aerodrome Forecast
Issued by NWS

Home | Current Version | Previous Version | Text Only | Print | Product List | Glossary On
Versions: 1 2 3 4 5 6 7 8 9 10 11 12 13 14 15
190
FTPA31 PHFO 281130
TAFHJR
TAF
PHJR 281130Z 2812/2912 05005KT P6SM FEW025 SCT045
     FM281900 08009G16KT P6SM VCSH SCT025 BKN050
      TEMPO 2822/2902 5SM -SHRA SCT025 BKN040
     FM290500 06006KT P6SM VCSH SCT025 SCT050=

USA.gov is the U.S. government's official web portal to all federal, state and local government web resources and services.